Time;durP1;ratioP1;P1;durP2;ratioP2;P2;SDS_P1;SDS_P2;PMS_P1;PMS_P2;Temp;Humidity;BMP_temperature;BMP_pressure;BME280_temperature;BME280_humidity;BME280_pressure;Samples;Min_cycle;Max_cycle;Signal;HPM_P1;HPM_P2
2023/02/23 00:01:49;;;;;;;7.95;4.50;;;6.70;52.50;;;;;;4998691;28;20125;-76
2023/02/23 00:04:17;;;;;;;7.97;4.50;;;6.70;52.30;;;;;;4995480;28;20057;-76
2023/02/23 00:06:43;;;;;;;10.57;5.05;;;6.70;52.20;;;;;;4996286;28;20073;-76
2023/02/23 00:09:21;;;;;;;6.80;4.57;;;6.70;52.30;;;;;;4993690;28;20042;-79
2023/02/23 00:11:49;;;;;;;7.05;4.15;;;6.70;52.30;;;;;;4995799;28;20046;-77
2023/02/23 00:14:14;;;;;;;5.55;4.03;;;6.70;52.50;;;;;;4994554;28;20081;-77
2023/02/23 00:16:44;;;;;;;5.68;4.28;;;6.70;52.40;;;;;;4994756;28;20612;-77
2023/02/23 00:19:12;;;;;;;6.78;4.00;;;6.70;52.40;;;;;;4995678;28;20092;-76
2023/02/23 00:21:40;;;;;;;7.20;4.30;;;6.70;52.30;;;;;;4995918;28;20444;-76
2023/02/23 00:24:09;;;;;;;5.93;3.97;;;6.60;52.30;;;;;;4995403;28;20513;-75
2023/02/23 00:26:37;;;;;;;6.53;4.25;;;6.60;52.30;;;;;;4995089;28;20042;-76
2023/02/23 00:29:07;;;;;;;6.05;4.03;;;6.60;52.30;;;;;;4995262;28;20112;-77
2023/02/23 00:31:33;;;;;;;6.85;4.20;;;6.60;52.20;;;;;;4991684;28;20041;-76
2023/02/23 00:34:01;;;;;;;7.85;4.75;;;6.60;52.30;;;;;;4996138;28;20502;-76
2023/02/23 00:36:34;;;;;;;6.40;4.25;;;6.70;52.40;;;;;;4994382;28;20413;-75
2023/02/23 00:39:16;;;;;;;7.43;4.65;;;6.70;52.50;;;;;;4995829;28;20050;-76
2023/02/23 00:41:43;;;;;;;7.15;4.75;;;6.70;52.50;;;;;;4992564;28;20034;-78
2023/02/23 00:44:09;;;;;;;7.40;4.28;;;6.60;52.60;;;;;;5009658;28;20042;-77
2023/02/23 00:46:35;;;;;;;7.13;4.53;;;6.60;52.50;;;;;;4996795;28;20521;-76
2023/02/23 00:49:02;;;;;;;7.40;4.47;;;6.60;52.50;;;;;;5010192;28;20413;-77
2023/02/23 00:51:31;;;;;;;6.68;4.25;;;6.60;52.50;;;;;;4992520;28;20037;-77
2023/02/23 00:53:59;;;;;;;8.05;4.40;;;6.60;52.40;;;;;;5009920;28;20587;-78
2023/02/23 00:56:26;;;;;;;7.82;4.90;;;6.60;52.40;;;;;;5009647;28;20081;-77
2023/02/23 00:58:52;;;;;;;6.88;4.40;;;6.60;52.30;;;;;;4977209;28;21147;-78
2023/02/23 01:01:18;;;;;;;6.75;3.83;;;6.60;52.30;;;;;;5010133;28;20307;-78
2023/02/23 01:03:44;;;;;;;6.97;4.50;;;6.60;52.30;;;;;;5010093;28;20698;-78
2023/02/23 01:06:14;;;;;;;6.72;4.50;;;6.60;52.20;;;;;;4993726;28;20031;-78
2023/02/23 01:08:44;;;;;;;7.80;4.15;;;6.60;52.90;;;;;;4995782;28;20038;-78
2023/02/23 01:11:13;;;;;;;6.28;4.35;;;6.60;52.30;;;;;;5009415;28;20125;-76
2023/02/23 01:13:41;;;;;;;6.50;4.55;;;6.60;52.20;;;;;;4993795;28;20070;-76
2023/02/23 01:16:09;;;;;;;7.43;4.68;;;6.60;52.20;;;;;;5009885;28;20069;-75
2023/02/23 01:18:37;;;;;;;7.20;4.68;;;6.50;52.20;;;;;;4993320;28;20034;-75
2023/02/23 01:21:04;;;;;;;8.70;4.50;;;6.60;52.30;;;;;;5008889;28;20041;-74
2023/02/23 01:23:31;;;;;;;7.15;4.20;;;6.60;52.40;;;;;;4994555;28;20081;-75
2023/02/23 01:25:57;;;;;;;6.22;4.35;;;6.60;52.40;;;;;;4994606;28;20065;-76
2023/02/23 01:28:24;;;;;;;7.95;4.57;;;6.60;52.30;;;;;;5011692;28;20030;-75
2023/02/23 01:30:49;;;;;;;6.82;4.30;;;6.50;52.50;;;;;;4998394;28;20062;-75
2023/02/23 01:33:15;;;;;;;8.25;4.35;;;6.50;52.60;;;;;;5013764;28;20046;-76
2023/02/23 01:35:42;;;;;;;7.72;4.40;;;6.60;52.70;;;;;;4997137;28;20034;-76
2023/02/23 01:38:10;;;;;;;6.38;3.95;;;6.60;52.80;;;;;;5012286;28;20547;-73
2023/02/23 01:40:38;;;;;;;6.30;4.38;;;6.60;52.90;;;;;;5013722;28;20037;-76
2023/02/23 01:43:14;;;;;;;7.43;4.43;;;6.60;53.10;;;;;;4998440;28;20030;-75
2023/02/23 01:45:43;;;;;;;7.28;4.50;;;6.60;52.90;;;;;;5013448;28;20506;-75
2023/02/23 01:48:17;;;;;;;6.18;4.30;;;6.60;52.70;;;;;;4997422;28;20026;-76
2023/02/23 01:51:10;;;;;;;6.97;4.18;;;6.60;52.60;;;;;;5012649;28;20034;-76
2023/02/23 01:53:40;;;;;;;6.35;3.90;;;6.50;52.70;;;;;;4989648;28;20073;-75
2023/02/23 01:56:10;;;;;;;6.28;4.30;;;6.60;52.70;;;;;;5012999;28;20471;-75
2023/02/23 01:58:44;;;;;;;7.53;4.38;;;6.60;52.60;;;;;;5014062;28;20125;-75
2023/02/23 02:01:11;;;;;;;7.07;4.10;;;6.60;52.50;;;;;;5012340;28;20085;-74
2023/02/23 02:03:52;;;;;;;8.65;4.53;;;6.60;52.50;;;;;;5014052;28;20038;-76
2023/02/23 02:06:22;;;;;;;9.48;4.55;;;6.60;52.50;;;;;;4998060;28;20125;-75
2023/02/23 02:08:53;;;;;;;7.32;4.97;;;6.50;52.40;;;;;;5013323;28;20046;-74
2023/02/23 02:11:35;;;;;;;9.18;4.78;;;6.50;52.30;;;;;;5011713;28;20125;-75
2023/02/23 02:14:11;;;;;;;7.72;4.15;;;6.50;52.50;;;;;;4996952;28;20070;-76
2023/02/23 02:17:01;;;;;;;6.53;4.20;;;6.50;52.40;;;;;;5014440;28;20033;-77
2023/02/23 02:19:57;;;;;;;8.25;4.40;;;6.60;52.20;;;;;;5012148;28;20085;-77
2023/02/23 02:22:59;;;;;;;7.10;4.40;;;6.50;52.20;;;;;;4998605;28;20576;-77
2023/02/23 02:26:02;;;;;;;7.90;4.75;;;6.50;52.20;;;;;;5012680;28;20038;-77
2023/02/23 02:28:35;;;;;;;7.85;4.78;;;6.50;52.10;;;;;;4978343;28;20142;-76
2023/02/23 02:31:55;;;;;;;7.25;4.60;;;6.50;52.20;;;;;;4997677;28;20574;-77
2023/02/23 02:34:49;;;;;;;6.85;4.30;;;6.50;52.30;;;;;;4987587;28;20488;-77
2023/02/23 02:37:25;;;;;;;5.60;4.25;;;6.50;52.30;;;;;;5012288;28;20505;-77
2023/02/23 02:40:21;;;;;;;6.63;4.38;;;6.50;52.40;;;;;;5011566;28;20030;-77
2023/02/23 02:42:58;;;;;;;8.18;4.47;;;6.50;52.50;;;;;;4996868;28;20041;-77
2023/02/23 02:45:55;;;;;;;6.68;4.45;;;6.50;52.50;;;;;;4997368;28;20041;-76
2023/02/23 02:48:56;;;;;;;8.80;4.38;;;6.50;52.60;;;;;;4995553;28;20042;-76
2023/02/23 02:51:35;;;;;;;7.65;4.70;;;6.50;52.50;;;;;;5010644;28;20038;-76
2023/02/23 02:54:21;;;;;;;5.60;3.83;;;6.50;52.40;;;;;;4997084;28;20569;-76
2023/02/23 02:56:50;;;;;;;7.60;4.47;;;6.50;52.40;;;;;;5013601;28;20124;-75
2023/02/23 04:17:42;;;;;;;8.57;5.20;;;6.30;51.60;;;;;;4978718;28;20045;-77
2023/02/23 04:20:11;;;;;;;7.72;5.20;;;6.30;51.50;;;;;;4994788;28;20074;-75
2023/02/23 04:22:37;;;;;;;9.30;5.43;;;6.30;51.40;;;;;;4994718;28;20049;-78
2023/02/23 04:25:05;;;;;;;7.35;4.93;;;6.30;51.40;;;;;;4995392;28;20035;-77
2023/02/23 04:27:31;;;;;;;9.40;5.38;;;6.30;51.30;;;;;;4994343;28;20137;-77
2023/02/23 04:29:57;;;;;;;9.75;5.70;;;6.30;51.30;;;;;;5010656;28;20069;-78
2023/02/23 04:32:23;;;;;;;8.02;5.45;;;6.30;51.00;;;;;;5010301;28;20047;-78
2023/02/23 04:34:49;;;;;;;7.75;5.45;;;6.30;51.00;;;;;;4994980;28;20409;-75
2023/02/23 04:37:15;;;;;;;8.07;4.97;;;6.30;51.10;;;;;;4994841;28;20080;-78
2023/02/23 04:39:48;;;;;;;8.65;5.15;;;6.20;51.20;;;;;;4994321;28;20484;-78
2023/02/23 04:42:18;;;;;;;9.98;5.03;;;6.30;51.30;;;;;;4995765;28;20096;-78
2023/02/23 04:44:44;;;;;;;8.35;5.20;;;6.30;51.30;;;;;;4993585;28;20026;-77
2023/02/23 04:47:11;;;;;;;7.40;5.05;;;6.30;51.30;;;;;;5010551;28;20026;-77
2023/02/23 04:49:37;;;;;;;7.57;4.90;;;6.30;51.30;;;;;;5010880;28;20026;-77
2023/02/23 04:52:03;;;;;;;7.82;5.10;;;6.20;51.20;;;;;;5010343;28;20041;-76
2023/02/23 04:54:29;;;;;;;8.48;5.10;;;6.30;51.20;;;;;;5010563;28;20038;-75
2023/02/23 04:56:55;;;;;;;7.70;5.50;;;6.30;51.10;;;;;;4995802;28;20509;-76
2023/02/23 04:59:21;;;;;;;7.40;4.55;;;6.30;51.10;;;;;;4993621;28;20045;-75
2023/02/23 05:01:47;;;;;;;8.02;5.55;;;6.30;51.00;;;;;;4996363;28;20088;-78
2023/02/23 05:04:13;;;;;;;9.73;5.18;;;6.30;51.00;;;;;;4999627;28;20488;-78
2023/02/23 05:06:39;;;;;;;9.45;5.50;;;6.30;51.00;;;;;;5000640;28;20037;-76
2023/02/23 05:09:05;;;;;;;9.38;5.10;;;6.30;51.00;;;;;;4999234;28;20116;-78
2023/02/23 05:11:32;;;;;;;7.40;4.43;;;6.30;51.00;;;;;;4999540;28;20136;-78
2023/02/23 05:13:58;;;;;;;11.68;5.03;;;6.30;51.00;;;;;;5002328;28;20406;-77
2023/02/23 05:16:24;;;;;;;8.07;4.95;;;6.30;50.80;;;;;;4999605;28;20046;-78
2023/02/23 05:18:50;;;;;;;8.23;5.40;;;6.30;50.70;;;;;;4998296;28;20128;-76
2023/02/23 05:21:16;;;;;;;8.45;4.82;;;6.30;50.70;;;;;;4998486;28;20089;-78
2023/02/23 05:23:42;;;;;;;8.40;5.38;;;6.30;50.60;;;;;;4997981;28;20476;-77
2023/02/23 05:26:10;;;;;;;8.68;5.32;;;6.30;50.60;;;;;;4998282;28;20065;-77
2023/02/23 05:28:38;;;;;;;7.15;4.60;;;6.40;50.50;;;;;;5001799;28;20023;-78
2023/02/23 05:31:04;;;;;;;9.13;5.28;;;6.40;50.30;;;;;;4997558;28;20034;-78
2023/02/23 05:33:31;;;;;;;9.30;5.47;;;6.50;50.30;;;;;;4998777;28;20041;-76
2023/02/23 05:35:58;;;;;;;8.93;5.18;;;6.50;50.10;;;;;;5014007;28;20065;-77
2023/02/23 05:38:25;;;;;;;9.02;4.90;;;6.60;50.10;;;;;;4997351;28;20643;-78
2023/02/23 05:40:51;;;;;;;8.48;4.82;;;6.70;50.00;;;;;;4998077;28;20034;-78
2023/02/23 05:43:17;;;;;;;10.75;5.63;;;6.80;50.00;;;;;;5013470;28;20130;-79
2023/02/23 05:45:44;;;;;;;7.57;4.90;;;6.90;50.00;;;;;;4998118;28;20129;-78
2023/02/23 05:48:11;;;;;;;11.25;4.80;;;6.90;49.90;;;;;;4997945;28;20034;-75
2023/02/23 05:50:37;;;;;;;7.03;4.90;;;7.00;50.00;;;;;;5013241;28;20569;-77
2023/02/23 05:53:03;;;;;;;8.27;5.13;;;7.10;49.90;;;;;;4998311;28;20093;-77
2023/02/23 05:55:29;;;;;;;7.65;4.80;;;7.20;49.90;;;;;;4997849;28;20482;-74
2023/02/23 05:57:55;;;;;;;9.15;4.70;;;7.30;49.90;;;;;;4998336;28;20034;-76
2023/02/23 06:00:21;;;;;;;7.53;4.93;;;7.30;49.80;;;;;;4997793;28;20123;-77
2023/02/23 06:02:51;;;;;;;8.27;5.13;;;7.40;49.90;;;;;;5013581;28;20477;-75
2023/02/23 06:05:17;;;;;;;8.77;5.40;;;7.50;49.80;;;;;;4997651;28;20049;-76
2023/02/23 06:07:43;;;;;;;7.22;4.47;;;7.60;49.80;;;;;;5012027;28;20034;-75
2023/02/23 06:10:09;;;;;;;8.45;5.03;;;7.60;49.60;;;;;;4998938;28;20844;-77
2023/02/23 06:12:35;;;;;;;10.05;5.93;;;7.70;49.60;;;;;;4995939;28;20049;-78
2023/02/23 06:15:01;;;;;;;9.52;6.03;;;7.70;44.90;;;;;;4992397;28;20050;-77
2023/02/23 06:17:27;;;;;;;8.70;6.13;;;7.50;40.70;;;;;;4995750;28;20037;-77
2023/02/23 06:19:53;;;;;;;10.13;6.10;;;7.20;39.60;;;;;;5010027;28;20543;-77
2023/02/23 06:22:19;;;;;;;12.77;7.05;;;6.90;38.70;;;;;;4986788;28;20524;-77
2023/02/23 06:24:45;;;;;;;10.93;6.75;;;6.70;39.00;;;;;;4991557;28;20416;-76
2023/02/23 06:27:12;;;;;;;10.68;6.82;;;6.50;38.60;;;;;;4994809;28;20038;-77
2023/02/23 06:29:38;;;;;;;10.07;6.95;;;6.20;38.90;;;;;;5010329;28;20042;-76
2023/02/23 06:32:05;;;;;;;9.45;6.78;;;6.10;39.80;;;;;;4994806;28;20045;-78
2023/02/23 06:34:31;;;;;;;9.38;5.80;;;5.90;39.40;;;;;;4995400;28;20022;-79
2023/02/23 06:36:58;;;;;;;10.07;6.47;;;5.70;39.40;;;;;;5010123;28;20675;-78
2023/02/23 06:39:24;;;;;;;11.35;6.72;;;5.60;39.40;;;;;;4995016;28;20042;-78
2023/02/23 06:41:50;;;;;;;9.95;6.28;;;5.50;39.70;;;;;;4994888;28;20045;-76
2023/02/23 06:44:16;;;;;;;11.52;6.70;;;5.40;40.10;;;;;;4994204;28;20089;-77
2023/02/23 06:46:42;;;;;;;11.63;6.50;;;5.40;40.70;;;;;;5009919;28;20414;-75
2023/02/23 06:49:11;;;;;;;11.70;6.97;;;5.30;40.70;;;;;;4994232;28;20428;-80
2023/02/23 06:51:36;;;;;;;11.07;6.38;;;5.20;41.00;;;;;;4996203;28;20132;-76
2023/02/23 06:54:03;;;;;;;10.23;5.82;;;5.10;41.00;;;;;;5009399;28;20087;-75
2023/02/23 06:56:29;;;;;;;10.00;5.43;;;5.30;43.00;;;;;;4991264;28;20050;-75
2023/02/23 06:58:55;;;;;;;7.65;5.10;;;5.50;45.70;;;;;;4994205;28;20104;-74
2023/02/23 07:01:20;;;;;;;8.15;5.10;;;5.70;47.20;;;;;;4994714;28;20074;-75
2023/02/23 07:03:46;;;;;;;8.93;4.88;;;5.90;48.40;;;;;;5009644;28;20069;-76
2023/02/23 07:06:12;;;;;;;8.25;4.88;;;6.10;48.80;;;;;;4991837;28;20396;-75
2023/02/23 07:08:38;;;;;;;21.60;6.20;;;6.30;49.20;;;;;;4994306;28;20045;-76
2023/02/23 07:11:08;;;;;;;8.63;4.47;;;6.60;49.80;;;;;;5010732;28;20034;-77
2023/02/23 07:13:34;;;;;;;7.57;4.88;;;6.80;50.40;;;;;;4994994;28;20402;-77
2023/02/23 07:16:00;;;;;;;7.47;4.80;;;6.90;50.60;;;;;;4994461;28;20078;-77
2023/02/23 07:18:26;;;;;;;9.63;4.53;;;7.10;50.90;;;;;;4995146;28;20528;-76
2023/02/23 07:20:52;;;;;;;7.95;4.05;;;7.30;51.70;;;;;;4993252;28;20658;-75
2023/02/23 07:23:18;;;;;;;8.73;4.70;;;7.40;51.20;;;;;;5008987;28;20064;-77
2023/02/23 07:25:44;;;;;;;8.05;4.32;;;7.50;51.60;;;;;;4994107;28;20042;-77
2023/02/23 07:28:13;;;;;;;13.40;4.50;;;7.70;51.50;;;;;;4993904;28;20034;-77
2023/02/23 07:30:40;;;;;;;7.65;4.32;;;7.80;51.60;;;;;;4994171;28;20513;-78
2023/02/23 07:33:05;;;;;;;8.05;4.35;;;7.90;51.70;;;;;;4993741;28;20034;-77
2023/02/23 07:35:31;;;;;;;8.85;4.47;;;7.90;51.80;;;;;;4994050;28;20441;-79
2023/02/23 07:37:57;;;;;;;9.00;4.78;;;8.10;51.80;;;;;;4993783;28;20070;-77
2023/02/23 07:40:24;;;;;;;6.95;4.10;;;8.20;52.00;;;;;;4995038;28;20038;-77
2023/02/23 07:42:50;;;;;;;7.18;4.10;;;8.30;52.00;;;;;;5007905;28;20031;-75
2023/02/23 07:45:17;;;;;;;9.40;4.55;;;8.30;52.00;;;;;;4992577;28;20038;-77
2023/02/23 07:47:43;;;;;;;8.07;4.32;;;8.50;52.00;;;;;;4993096;28;20053;-77
2023/02/23 07:50:11;;;;;;;8.38;3.92;;;8.50;51.80;;;;;;4993652;28;20027;-76
2023/02/23 07:52:39;;;;;;;6.78;4.50;;;8.60;52.10;;;;;;5009363;28;20509;-78
2023/02/23 07:55:06;;;;;;;6.90;4.15;;;8.70;52.30;;;;;;4993332;28;20050;-75
2023/02/23 07:57:33;;;;;;;5.55;3.90;;;8.80;52.30;;;;;;4991928;28;20124;-76
2023/02/23 07:59:59;;;;;;;8.90;3.65;;;8.90;52.20;;;;;;5008964;28;20057;-78
2023/02/23 08:02:27;;;;;;;6.10;3.88;;;9.00;52.20;;;;;;4993340;28;20034;-77
2023/02/23 08:04:54;;;;;;;7.72;4.32;;;9.10;52.10;;;;;;5007117;28;20037;-77
2023/02/23 08:07:21;;;;;;;7.07;3.72;;;9.10;52.10;;;;;;4994211;28;20514;-77
2023/02/23 08:09:48;;;;;;;6.50;3.72;;;9.20;52.10;;;;;;4994438;28;20046;-76
2023/02/23 08:12:14;;;;;;;8.80;3.97;;;9.30;52.00;;;;;;5008505;28;20505;-78
2023/02/23 08:14:41;;;;;;;7.35;4.20;;;9.30;52.00;;;;;;4992354;28;20517;-77
2023/02/23 08:17:08;;;;;;;8.50;3.97;;;9.30;52.00;;;;;;4993748;28;20173;-76
2023/02/23 08:19:34;;;;;;;11.30;4.30;;;9.40;52.10;;;;;;4996014;28;20034;-77
2023/02/23 08:22:01;;;;;;;8.10;4.63;;;9.40;52.00;;;;;;4993613;28;20038;-79
2023/02/23 08:24:29;;;;;;;8.43;4.20;;;9.50;52.00;;;;;;4992565;28;20045;-78
2023/02/23 08:27:00;;;;;;;7.05;4.18;;;9.50;52.10;;;;;;4993220;28;20046;-78
2023/02/23 08:29:26;;;;;;;7.32;4.53;;;9.50;52.10;;;;;;4993693;28;20034;-78
2023/02/23 08:31:52;;;;;;;9.20;4.35;;;9.50;52.00;;;;;;4993108;28;20034;-78
2023/02/23 08:34:19;;;;;;;6.57;4.53;;;9.60;52.20;;;;;;5007400;28;20125;-77
2023/02/23 08:36:45;;;;;;;5.35;3.85;;;9.60;52.30;;;;;;4992242;28;20111;-78
2023/02/23 08:39:12;;;;;;;7.22;4.30;;;9.60;52.20;;;;;;4991830;28;20034;-76
2023/02/23 08:41:39;;;;;;;6.43;3.85;;;9.70;52.20;;;;;;4992948;28;20030;-77
2023/02/23 08:44:05;;;;;;;6.80;4.22;;;9.70;52.30;;;;;;4992041;28;20060;-74
2023/02/23 08:46:31;;;;;;;8.07;4.40;;;9.70;52.70;;;;;;4993224;28;20026;-76
2023/02/23 08:48:57;;;;;;;6.13;4.30;;;9.80;53.00;;;;;;4993260;28;20026;-77
2023/02/23 08:51:23;;;;;;;5.15;3.75;;;9.80;53.20;;;;;;4992825;28;20033;-76
2023/02/23 08:53:49;;;;;;;5.47;3.85;;;9.80;53.20;;;;;;4993629;28;20190;-75
2023/02/23 08:56:16;;;;;;;7.50;3.85;;;9.90;53.20;;;;;;5006010;28;20074;-76
2023/02/23 08:58:42;;;;;;;5.25;4.03;;;9.90;53.10;;;;;;4993017;28;20042;-77
2023/02/23 09:01:16;;;;;;;6.53;3.88;;;9.90;53.10;;;;;;5006141;28;20070;-77
2023/02/23 09:03:42;;;;;;;7.18;3.80;;;9.90;53.00;;;;;;4993249;28;20085;-77
2023/02/23 09:06:12;;;;;;;6.68;4.15;;;9.90;52.80;;;;;;4990791;28;20361;-79
2023/02/23 09:08:38;;;;;;;5.95;3.95;;;9.90;52.70;;;;;;4992228;28;20046;-76
2023/02/23 09:11:04;;;;;;;7.68;4.38;;;9.90;52.70;;;;;;4992108;28;20039;-80
2023/02/23 09:13:30;;;;;;;7.82;3.50;;;9.90;52.70;;;;;;4991971;28;20207;-81
2023/02/23 09:15:57;;;;;;;5.57;3.88;;;9.90;52.80;;;;;;4993075;28;20034;-77
2023/02/23 09:18:26;;;;;;;6.93;4.00;;;9.90;52.70;;;;;;4991563;28;20030;-78
2023/02/23 09:20:52;;;;;;;6.70;3.90;;;9.90;52.70;;;;;;4989147;28;20030;-80
2023/02/23 09:23:18;;;;;;;5.35;3.58;;;9.90;52.70;;;;;;4992077;28;20675;-81
2023/02/23 09:25:45;;;;;;;4.85;3.75;;;9.90;52.70;;;;;;5008049;28;20117;-83
2023/02/23 09:28:16;;;;;;;6.00;3.40;;;9.90;52.70;;;;;;4992623;28;20122;-81
2023/02/23 09:30:44;;;;;;;7.07;3.83;;;9.90;52.80;;;;;;4993866;28;20030;-77
2023/02/23 09:33:10;;;;;;;5.00;3.38;;;9.90;52.80;;;;;;5008344;28;20047;-76
2023/02/23 09:35:36;;;;;;;5.95;3.67;;;9.90;52.90;;;;;;4992028;28;20432;-78
2023/02/23 09:38:05;;;;;;;5.97;3.50;;;9.90;52.90;;;;;;4993940;28;20042;-79
2023/02/23 09:40:52;;;;;;;6.07;3.47;;;9.90;52.60;;;;;;4993232;28;20450;-79
2023/02/23 09:43:36;;;;;;;7.13;3.03;;;9.90;52.40;;;;;;4994154;28;20539;-79
2023/02/23 09:46:02;;;;;;;6.32;3.80;;;9.90;52.10;;;;;;5010594;28;20034;-79
2023/02/23 09:48:28;;;;;;;6.88;3.30;;;9.90;51.80;;;;;;4996243;28;20056;-79
2023/02/23 09:50:56;;;;;;;7.20;3.28;;;9.90;51.90;;;;;;4999265;28;20308;-79
2023/02/23 09:53:37;;;;;;;8.90;3.80;;;9.90;52.20;;;;;;4996699;28;20042;-78
2023/02/23 09:56:10;;;;;;;6.18;3.25;;;9.90;52.30;;;;;;5012422;28;20034;-79
2023/02/23 09:58:37;;;;;;;6.38;3.38;;;9.90;52.40;;;;;;4999660;28;20026;-79
2023/02/23 10:01:36;;;;;;;6.18;3.28;;;9.90;52.40;;;;;;5013149;28;20054;-79
2023/02/23 10:04:13;;;;;;;8.25;3.83;;;9.90;52.30;;;;;;4975030;28;20039;-77
2023/02/23 10:06:44;;;;;;;5.60;3.80;;;9.90;52.30;;;;;;4997103;28;20034;-76
2023/02/23 10:09:47;;;;;;;5.57;3.95;;;9.90;52.30;;;;;;4999762;28;20042;-76
2023/02/23 10:12:38;;;;;;;6.32;3.75;;;9.90;52.30;;;;;;4997961;28;20046;-75
2023/02/23 10:15:23;;;;;;;7.00;4.50;;;9.90;52.20;;;;;;4997359;28;20042;-77
2023/02/23 10:18:03;;;;;;;6.35;4.38;;;9.80;52.10;;;;;;5013628;28;20090;-82
2023/02/23 10:20:57;;;;;;;8.13;4.20;;;9.80;52.20;;;;;;4998305;28;20428;-79
2023/02/23 10:23:39;;;;;;;8.02;4.22;;;9.80;51.80;;;;;;4993923;28;20062;-77
2023/02/23 10:26:07;;;;;;;7.07;4.22;;;9.80;51.20;;;;;;4995083;28;20262;-76
2023/02/23 10:28:36;;;;;;;6.00;3.85;;;9.80;51.50;;;;;;4997822;28;21122;-77
2023/02/23 10:31:30;;;;;;;6.07;4.03;;;9.80;51.60;;;;;;4979615;28;20385;-76
2023/02/23 10:34:01;;;;;;;5.57;3.78;;;9.80;52.20;;;;;;4987524;28;20046;-78
2023/02/23 10:36:43;;;;;;;6.45;4.22;;;9.90;52.20;;;;;;5013263;28;20457;-78
2023/02/23 10:39:11;;;;;;;6.85;4.22;;;9.90;51.80;;;;;;4997487;28;20038;-75
2023/02/23 10:41:38;;;;;;;8.88;4.07;;;9.90;51.40;;;;;;4997329;28;20131;-76
2023/02/23 10:44:10;;;;;;;6.05;4.07;;;9.90;51.10;;;;;;4997607;28;20038;-77
2023/02/23 10:46:39;;;;;;;7.80;4.20;;;9.90;51.00;;;;;;5011164;28;20043;-77
2023/02/23 10:49:09;;;;;;;10.00;4.40;;;9.90;50.90;;;;;;4996603;28;20193;-77
2023/02/23 10:51:38;;;;;;;6.20;4.32;;;9.90;50.90;;;;;;5008668;28;20430;-76
2023/02/23 10:54:35;;;;;;;7.50;3.97;;;9.90;50.90;;;;;;4996830;28;20038;-76
2023/02/23 10:57:03;;;;;;;7.75;4.30;;;9.90;51.00;;;;;;4999022;28;20037;-76
2023/02/23 10:59:29;;;;;;;10.45;4.40;;;9.90;51.10;;;;;;4998710;28;20417;-76
2023/02/23 11:01:55;;;;;;;9.73;4.55;;;9.90;51.00;;;;;;5011802;28;20030;-75
2023/02/23 11:04:27;;;;;;;7.32;4.00;;;9.90;51.10;;;;;;4998278;28;20129;-75
2023/02/23 11:07:15;;;;;;;11.70;3.92;;;9.90;51.30;;;;;;5012222;28;20060;-77
2023/02/23 11:09:41;;;;;;;9.88;4.25;;;9.80;51.50;;;;;;4997855;28;20174;-76
2023/02/23 11:12:23;;;;;;;9.13;3.80;;;9.80;51.60;;;;;;4993387;28;20030;-77
2023/02/23 11:14:54;;;;;;;10.05;4.35;;;9.80;51.70;;;;;;4997209;28;20042;-76
2023/02/23 11:17:31;;;;;;;6.95;4.65;;;9.80;51.80;;;;;;4996283;28;20046;-77
2023/02/23 11:20:01;;;;;;;6.78;4.55;;;9.80;51.80;;;;;;4994653;28;20030;-78
2023/02/23 11:22:31;;;;;;;8.73;4.60;;;9.80;51.90;;;;;;4993598;28;20510;-77
2023/02/23 11:24:58;;;;;;;8.85;4.38;;;9.80;51.90;;;;;;4993343;28;20095;-79
2023/02/23 11:27:26;;;;;;;8.32;4.38;;;9.80;52.20;;;;;;4992475;28;20057;-79
2023/02/23 11:29:56;;;;;;;6.72;4.60;;;9.70;51.70;;;;;;4993406;28;20092;-77
2023/02/23 11:32:32;;;;;;;5.40;3.85;;;9.80;51.50;;;;;;4998114;28;20133;-78
2023/02/23 11:35:20;;;;;;;8.48;4.57;;;9.80;51.30;;;;;;5010970;28;20490;-77
2023/02/23 11:37:46;;;;;;;8.70;4.28;;;9.80;51.20;;;;;;5009620;28;20041;-78
2023/02/23 11:40:20;;;;;;;8.82;4.13;;;9.80;51.10;;;;;;5009115;28;20034;-78
2023/02/23 11:43:14;;;;;;;6.13;3.90;;;9.80;51.20;;;;;;4991296;28;20026;-81
2023/02/23 11:45:50;;;;;;;5.57;4.05;;;9.80;51.40;;;;;;4990794;28;20034;-79
2023/02/23 11:48:41;;;;;;;6.45;4.00;;;9.80;51.50;;;;;;4994625;28;20026;-78
2023/02/23 11:51:08;;;;;;;6.47;4.00;;;9.80;51.70;;;;;;4993422;28;20551;-79
2023/02/23 11:53:41;;;;;;;7.07;4.18;;;9.80;52.10;;;;;;4995080;28;20042;-76
2023/02/23 11:56:09;;;;;;;7.70;4.40;;;9.80;52.60;;;;;;4993965;28;20052;-82
2023/02/23 11:58:38;;;;;;;7.45;3.85;;;9.80;52.90;;;;;;4995309;28;20084;-79
2023/02/23 12:01:12;;;;;;;9.27;4.53;;;9.80;53.40;;;;;;4992251;28;20061;-77
2023/02/23 12:03:50;;;;;;;6.95;4.13;;;9.80;53.90;;;;;;4993746;28;20035;-77
2023/02/23 12:06:40;;;;;;;6.25;3.97;;;9.80;54.40;;;;;;5007707;28;20034;-80
2023/02/23 12:09:17;;;;;;;9.57;4.13;;;9.80;54.60;;;;;;5008622;28;20045;-79
2023/02/23 12:11:50;;;;;;;8.50;3.88;;;9.80;55.20;;;;;;4991265;28;20516;-80
2023/02/23 12:14:29;;;;;;;7.18;4.30;;;9.80;55.60;;;;;;4992017;28;20050;-80
2023/02/23 12:17:03;;;;;;;8.10;3.75;;;9.80;55.80;;;;;;4993491;28;20397;-81
2023/02/23 12:19:48;;;;;;;7.22;3.90;;;9.80;56.00;;;;;;4994141;28;20039;-79
2023/02/23 12:22:19;;;;;;;7.72;4.35;;;9.80;55.70;;;;;;4992089;28;20038;-78
2023/02/23 12:25:22;;;;;;;6.65;4.20;;;9.70;55.40;;;;;;4993610;28;20053;-88
2023/02/23 12:28:37;;;;;;;7.95;4.28;;;9.80;55.30;;;;;;4994449;28;20578;-82
2023/02/23 12:31:24;;;;;;;9.68;4.28;;;9.80;55.20;;;;;;4994413;28;20057;-81
2023/02/23 12:33:57;;;;;;;8.95;4.07;;;9.80;55.20;;;;;;4996209;28;20554;-81
2023/02/23 12:36:41;;;;;;;6.57;3.85;;;9.80;55.30;;;;;;5008872;28;20544;-80
2023/02/23 12:39:33;;;;;;;8.25;4.20;;;9.80;55.20;;;;;;4994745;28;20168;-82
2023/02/23 12:42:25;;;;;;;6.05;4.05;;;9.80;55.20;;;;;;4993475;28;20129;-82
2023/02/23 12:45:00;;;;;;;6.57;3.92;;;9.80;55.30;;;;;;4991962;28;20031;-82
2023/02/23 12:47:41;;;;;;;10.85;3.75;;;9.80;55.30;;;;;;4992728;28;20137;-81
2023/02/23 12:50:20;;;;;;;6.57;3.85;;;9.80;55.20;;;;;;4993242;28;20077;-79
2023/02/23 12:52:52;;;;;;;7.38;3.88;;;9.80;55.10;;;;;;5010937;28;20046;-77
2023/02/23 12:55:40;;;;;;;8.70;4.60;;;9.80;55.00;;;;;;4994914;28;20041;-78
2023/02/23 12:58:33;;;;;;;8.05;4.53;;;9.80;55.20;;;;;;4994350;28;20555;-80
2023/02/23 13:01:15;;;;;;;7.70;4.28;;;9.80;55.20;;;;;;4998698;28;20038;-81
2023/02/23 13:03:41;;;;;;;7.93;4.30;;;9.70;55.00;;;;;;4994101;28;20030;-82
2023/02/23 13:06:36;;;;;;;7.40;3.95;;;9.70;55.00;;;;;;4993013;28;20030;-80
2023/02/23 13:09:23;;;;;;;6.30;4.40;;;9.70;55.00;;;;;;4985774;28;20401;-83
2023/02/23 13:12:26;;;;;;;6.47;4.47;;;9.70;54.80;;;;;;4995687;28;20030;-79
2023/02/23 13:15:17;;;;;;;7.05;4.20;;;9.70;54.40;;;;;;5007800;28;20401;-81
2023/02/23 13:17:55;;;;;;;6.55;4.20;;;9.70;54.10;;;;;;5010103;28;20108;-84
2023/02/23 13:21:00;;;;;;;6.75;4.55;;;9.70;53.90;;;;;;4995830;28;20034;-82
2023/02/23 13:23:38;;;;;;;5.93;3.95;;;9.70;53.80;;;;;;4990745;28;20050;-80
2023/02/23 13:26:11;;;;;;;10.02;4.47;;;9.70;53.70;;;;;;5014742;28;20034;-85
2023/02/23 13:29:02;;;;;;;6.40;3.92;;;9.70;53.80;;;;;;4996056;28;20094;-83
2023/02/23 13:31:40;;;;;;;10.50;5.30;;;9.70;53.80;;;;;;5014728;28;20042;-82
2023/02/23 13:34:30;;;;;;;7.47;4.47;;;9.70;53.90;;;;;;4997612;28;20052;-78
2023/02/23 13:36:59;;;;;;;8.15;4.18;;;9.70;53.80;;;;;;4994192;28;20034;-81
2023/02/23 13:39:30;;;;;;;9.38;4.10;;;9.70;53.80;;;;;;4998301;28;20038;-79
2023/02/23 13:42:19;;;;;;;7.35;4.18;;;9.70;53.70;;;;;;5001775;28;20094;-79
2023/02/23 13:44:56;;;;;;;7.10;3.90;;;9.70;53.80;;;;;;4994625;28;20038;-80
2023/02/23 13:47:44;;;;;;;7.82;4.13;;;9.70;54.10;;;;;;4997763;28;20045;-81
2023/02/23 13:50:36;;;;;;;5.60;3.72;;;9.70;54.10;;;;;;4995126;28;20034;-81
2023/02/23 13:53:07;;;;;;;17.50;4.63;;;9.70;53.90;;;;;;5010837;28;20029;-80
2023/02/23 13:55:46;;;;;;;7.50;4.28;;;9.70;53.90;;;;;;4996360;28;20121;-80
2023/02/23 13:58:21;;;;;;;6.63;3.70;;;9.70;54.00;;;;;;4997663;28;20123;-77
2023/02/23 14:01:25;;;;;;;9.23;4.60;;;9.70;54.10;;;;;;4994530;28;20140;-76
2023/02/23 14:04:00;;;;;;;8.77;3.75;;;9.60;54.10;;;;;;4999264;28;20547;-75
2023/02/23 14:06:29;;;;;;;9.90;4.15;;;9.60;54.20;;;;;;4997465;28;20038;-78
2023/02/23 14:09:07;;;;;;;6.55;3.28;;;9.70;57.40;;;;;;4998759;28;20100;-79
2023/02/23 14:12:03;;;;;;;6.53;4.15;;;9.70;57.60;;;;;;4997474;28;20124;-79
2023/02/23 14:14:37;;;;;;;5.75;4.00;;;9.70;57.00;;;;;;4993585;28;20050;-78
2023/02/23 14:17:13;;;;;;;7.95;3.85;;;9.80;56.10;;;;;;4994593;28;20034;-77
2023/02/23 14:20:00;;;;;;;6.65;4.07;;;9.70;55.50;;;;;;4993387;28;20593;-77
2023/02/23 14:22:27;;;;;;;10.40;5.10;;;9.70;55.10;;;;;;4995200;28;20337;-77
2023/02/23 14:25:29;;;;;;;7.45;3.97;;;9.70;54.80;;;;;;4994364;28;20130;-77
2023/02/23 14:28:20;;;;;;;9.73;4.68;;;9.70;54.60;;;;;;4982600;28;20412;-78
2023/02/23 14:30:58;;;;;;;8.77;4.55;;;9.70;54.40;;;;;;4976516;28;20132;-79
2023/02/23 14:33:59;;;;;;;8.10;4.40;;;9.70;54.10;;;;;;4992849;28;20045;-77
2023/02/23 14:36:28;;;;;;;7.88;4.60;;;9.70;54.00;;;;;;4919874;29;20103;-78
2023/02/23 14:38:59;;;;;;;8.43;4.90;;;9.60;53.80;;;;;;4903896;29;20683;-77
2023/02/23 14:41:32;;;;;;;6.10;4.00;;;9.60;53.80;;;;;;4905348;29;20050;-77
2023/02/23 14:44:25;;;;;;;7.93;4.82;;;9.60;53.70;;;;;;4921914;29;20459;-78